Time;durP1;ratioP1;P1;durP2;ratioP2;P2;SDS_P1;SDS_P2;PMS_P1;PMS_P2;Temp;Humidity;BMP_temperature;BMP_pressure;BME280_temperature;BME280_humidity;BME280_pressure;Samples;Min_cycle;Max_cycle;Signal;HPM_P1;HPM_P2
2023/12/07 00:01:05;;;;;;;7.13;3.10;;;;;;;18.83;44.36;101953.75;5023160;28;20420;-38
2023/12/07 00:03:30;;;;;;;3.22;2.60;;;;;;;18.83;44.60;101952.94;5022658;28;20033;-37
2023/12/07 00:05:56;;;;;;;3.83;2.70;;;;;;;18.82;44.50;101956.75;5023246;28;20453;-36
2023/12/07 00:08:21;;;;;;;3.72;2.45;;;;;;;18.79;44.12;101952.63;5021732;28;20480;-37
2023/12/07 00:10:46;;;;;;;3.70;2.92;;;;;;;18.79;44.30;101954.53;5023944;28;20029;-37
2023/12/07 00:13:12;;;;;;;5.05;2.80;;;;;;;18.77;44.27;101957.53;5022591;28;20029;-37
2023/12/07 00:15:37;;;;;;;3.65;2.70;;;;;;;18.75;44.52;101952.28;5022479;28;20112;-38
2023/12/07 00:18:03;;;;;;;4.60;2.53;;;;;;;18.74;44.26;101950.63;5023813;28;20022;-38
2023/12/07 00:20:29;;;;;;;3.45;2.70;;;;;;;18.74;44.37;101947.06;5033291;28;20538;-38
2023/12/07 00:22:55;;;;;;;3.30;2.53;;;;;;;18.72;44.66;101950.06;5022455;28;20060;-39
2023/12/07 00:25:20;;;;;;;5.38;2.92;;;;;;;18.70;44.40;101948.63;5036906;28;20082;-38
2023/12/07 00:27:46;;;;;;;4.20;2.83;;;;;;;18.69;44.38;101944.25;5019700;28;20026;-39
2023/12/07 00:30:12;;;;;;;4.50;2.90;;;;;;;18.67;44.31;101943.69;5022500;28;20056;-39
2023/12/07 00:32:37;;;;;;;3.65;2.55;;;;;;;18.65;44.30;101937.59;5022812;28;20051;-38
2023/12/07 00:35:03;;;;;;;4.13;2.80;;;;;;;18.64;44.29;101941.41;5054746;28;20470;-38
2023/12/07 00:37:29;;;;;;;3.05;2.60;;;;;;;18.63;44.48;101939.78;5022106;28;20036;-36
2023/12/07 00:39:54;;;;;;;4.03;2.97;;;;;;;18.60;44.17;101939.19;5022662;28;20592;-36
2023/12/07 00:42:19;;;;;;;3.30;2.83;;;;;;;18.58;44.20;101935.88;5022766;28;20044;-36
2023/12/07 00:44:45;;;;;;;3.08;2.67;;;;;;;18.57;44.14;101930.66;5037264;28;20108;-36
2023/12/07 00:47:10;;;;;;;3.42;2.80;;;;;;;18.55;44.19;101932.81;5022222;28;20036;-37
2023/12/07 00:49:40;;;;;;;4.32;2.90;;;;;;;18.54;44.10;101944.88;5022852;28;20116;-37
2023/12/07 00:52:06;;;;;;;4.70;2.75;;;;;;;18.53;44.23;101940.47;5053308;28;20438;-37
2023/12/07 00:54:31;;;;;;;3.30;2.83;;;;;;;18.51;44.24;101937.16;5021608;28;20112;-38
2023/12/07 00:56:57;;;;;;;3.45;3.10;;;;;;;18.49;44.15;101934.66;5022710;28;20725;-37
2023/12/07 00:59:23;;;;;;;3.92;3.00;;;;;;;18.48;44.26;101933.00;5020049;28;20095;-37
2023/12/07 01:01:48;;;;;;;4.65;3.05;;;;;;;18.46;44.22;101935.16;5021828;28;20045;-36
2023/12/07 01:04:14;;;;;;;3.75;2.85;;;;;;;18.44;44.23;101934.56;5018562;28;20065;-37
2023/12/07 01:06:39;;;;;;;3.90;3.00;;;;;;;18.42;44.22;101943.06;5017527;28;20025;-36
2023/12/07 01:09:04;;;;;;;4.18;3.10;;;;;;;18.41;44.17;101941.41;5022770;28;20025;-37
2023/12/07 01:11:30;;;;;;;3.80;2.90;;;;;;;18.40;44.38;101947.97;5022468;28;20040;-38
2023/12/07 01:13:55;;;;;;;3.92;2.92;;;;;;;18.39;44.14;101937.25;5020817;28;20056;-36
2023/12/07 01:16:21;;;;;;;3.75;2.80;;;;;;;18.37;44.29;101943.00;5021707;28;20026;-36
2023/12/07 01:18:46;;;;;;;3.63;3.00;;;;;;;18.35;44.27;101939.66;5054081;28;20033;-36
2023/12/07 01:21:12;;;;;;;3.63;2.75;;;;;;;18.33;44.17;101941.84;5021647;28;20071;-36
2023/12/07 01:23:37;;;;;;;4.28;3.10;;;;;;;18.31;44.46;101946.75;5021689;28;20110;-36
2023/12/07 01:26:03;;;;;;;2.83;2.63;;;;;;;18.30;44.30;101956.06;5021294;28;20029;-37
2023/12/07 01:28:28;;;;;;;4.28;2.90;;;;;;;18.29;44.20;101957.16;5020210;28;20112;-38
2023/12/07 01:30:54;;;;;;;5.35;3.50;;;;;;;18.27;44.34;101959.31;5023500;28;20109;-37
2023/12/07 01:33:19;;;;;;;4.00;3.00;;;;;;;18.27;44.13;101951.91;5022378;28;20535;-37
2023/12/07 01:35:45;;;;;;;3.75;2.90;;;;;;;18.24;44.20;101948.84;5021696;28;20060;-37
2023/12/07 01:38:10;;;;;;;3.83;2.88;;;;;;;18.22;44.12;101945.50;5021415;28;20580;-38
2023/12/07 01:40:36;;;;;;;4.32;3.00;;;;;;;18.22;44.26;101945.50;5022374;28;20064;-37
2023/12/07 01:43:01;;;;;;;4.18;2.90;;;;;;;18.20;44.16;101950.44;5020837;28;20026;-37
2023/12/07 01:45:27;;;;;;;5.20;3.35;;;;;;;18.19;44.20;101943.28;5021717;28;20029;-37
2023/12/07 01:47:53;;;;;;;4.05;2.72;;;;;;;18.16;44.21;101936.41;5020974;28;20033;-37
2023/12/07 01:50:23;;;;;;;3.40;2.70;;;;;;;18.17;44.22;101940.78;5052221;28;20025;-37
2023/12/07 01:52:51;;;;;;;5.50;2.92;;;;;;;18.16;44.32;101941.03;5022312;28;20032;-37
2023/12/07 01:55:17;;;;;;;4.45;2.92;;;;;;;18.15;44.26;101939.38;5021589;28;20052;-37
2023/12/07 01:57:44;;;;;;;4.22;3.15;;;;;;;18.14;44.36;101946.78;5021157;28;20034;-37
2023/12/07 02:00:11;;;;;;;5.82;3.10;;;;;;;18.13;44.15;101945.13;5019995;28;20148;-38
2023/12/07 02:02:36;;;;;;;5.28;3.20;;;;;;;18.10;44.17;101945.63;5021213;28;20036;-38
2023/12/07 02:05:03;;;;;;;5.40;2.97;;;;;;;18.09;44.21;101944.78;5054731;28;20033;-38
2023/12/07 02:07:29;;;;;;;4.70;3.33;;;;;;;18.08;44.10;101939.56;5025342;28;20029;-38
2023/12/07 02:09:54;;;;;;;3.58;3.10;;;;;;;18.06;44.21;101937.06;5022611;28;20088;-38
2023/12/07 02:12:20;;;;;;;3.90;3.10;;;;;;;18.06;44.22;101931.59;5024581;28;20112;-38
2023/12/07 02:14:46;;;;;;;4.47;3.10;;;;;;;18.06;44.43;101944.44;5056123;28;20029;-38
2023/12/07 02:17:19;;;;;;;4.57;3.10;;;;;;;18.05;44.14;101943.63;5025449;28;20170;-38
2023/12/07 02:19:47;;;;;;;5.03;3.13;;;;;;;18.04;44.15;101943.88;5022719;28;20021;-38
2023/12/07 02:22:18;;;;;;;3.85;2.72;;;;;;;18.02;44.18;101943.31;5022692;28;20037;-38
2023/12/07 02:24:48;;;;;;;6.93;2.80;;;;;;;18.01;44.15;101947.94;5024099;28;20321;-38
2023/12/07 02:27:13;;;;;;;3.55;2.78;;;;;;;18.01;44.18;101944.38;5025970;28;20030;-38
2023/12/07 02:29:39;;;;;;;4.32;2.97;;;;;;;17.99;43.96;101941.88;5016905;28;20048;-38
2023/12/07 02:32:04;;;;;;;3.90;3.13;;;;;;;17.99;44.19;101952.88;5050023;28;20419;-38
2023/12/07 02:34:29;;;;;;;8.73;3.17;;;;;;;17.99;44.12;101944.63;5022365;28;20037;-37
2023/12/07 02:36:57;;;;;;;5.15;3.33;;;;;;;17.98;44.25;101950.34;5020671;28;20033;-37
2023/12/07 02:39:23;;;;;;;5.32;3.00;;;;;;;17.95;44.20;101946.19;5023654;28;20028;-37
2023/12/07 02:41:49;;;;;;;5.30;3.40;;;;;;;17.96;44.20;101950.59;5022938;28;20038;-37
2023/12/07 02:44:14;;;;;;;5.30;3.00;;;;;;;17.94;44.15;101945.38;5023185;28;20082;-37
2023/12/07 02:46:40;;;;;;;4.47;2.83;;;;;;;17.94;44.26;101944.53;5024187;28;20421;-37
2023/12/07 02:49:05;;;;;;;5.55;3.03;;;;;;;17.92;44.06;101941.19;5056459;28;20504;-37
2023/12/07 02:51:31;;;;;;;5.60;3.35;;;;;;;17.91;44.24;101950.50;5024847;28;20092;-37
2023/12/07 02:53:56;;;;;;;3.53;2.97;;;;;;;17.92;44.13;101946.69;5024299;28;20021;-37
2023/12/07 02:56:21;;;;;;;3.80;3.20;;;;;;;17.90;44.27;101948.81;5023293;28;20152;-37
2023/12/07 02:58:47;;;;;;;4.07;3.13;;;;;;;17.88;44.20;101962.81;5024374;28;20548;-37
2023/12/07 03:01:12;;;;;;;4.68;2.90;;;;;;;17.86;44.12;101956.72;5025603;28;20387;-37
2023/12/07 03:03:38;;;;;;;4.28;3.13;;;;;;;17.85;44.14;101957.81;5024120;28;20115;-37
2023/12/07 03:06:04;;;;;;;4.47;2.92;;;;;;;17.85;44.30;101951.50;5025079;28;20056;-36
2023/12/07 03:08:29;;;;;;;5.75;3.60;;;;;;;17.85;44.36;101956.97;5023645;28;20025;-37
2023/12/07 03:10:55;;;;;;;3.47;3.05;;;;;;;17.83;44.22;101956.38;5024765;28;20052;-37
2023/12/07 03:13:20;;;;;;;3.80;3.05;;;;;;;17.83;44.35;101964.63;5022844;28;20125;-38
2023/12/07 03:15:45;;;;;;;4.10;2.95;;;;;;;17.81;44.41;101957.47;5022669;28;20033;-38
2023/12/07 03:18:11;;;;;;;5.50;3.20;;;;;;;17.81;44.57;101951.97;5024713;28;20032;-38
2023/12/07 03:20:36;;;;;;;4.75;3.45;;;;;;;17.80;44.37;101946.75;5024210;28;20056;-38
2023/12/07 03:23:02;;;;;;;4.35;3.03;;;;;;;17.80;44.35;101928.41;5022027;28;20045;-38
2023/12/07 03:25:27;;;;;;;3.33;3.03;;;;;;;17.79;44.34;101945.94;5020449;28;20021;-38
2023/12/07 03:27:53;;;;;;;5.55;2.90;;;;;;;17.78;44.38;101952.50;5024170;28;20159;-38
2023/12/07 03:30:18;;;;;;;4.68;2.95;;;;;;;17.76;44.30;101951.91;5025409;28;20551;-38
2023/12/07 03:32:43;;;;;;;4.85;3.05;;;;;;;17.76;44.35;101956.56;5025176;28;20064;-39
2023/12/07 03:35:09;;;;;;;4.28;3.10;;;;;;;17.75;44.35;101955.72;5023778;28;20053;-38
2023/12/07 03:37:34;;;;;;;3.65;2.85;;;;;;;17.73;44.39;101952.41;5024669;28;20041;-38
2023/12/07 03:40:00;;;;;;;4.57;2.92;;;;;;;17.71;44.47;101951.00;5022813;28;20139;-38
2023/12/07 03:42:25;;;;;;;4.30;2.72;;;;;;;17.72;44.34;101950.75;5024085;28;20053;-37
2023/12/07 03:44:50;;;;;;;3.60;2.67;;;;;;;17.70;44.32;101947.41;5022215;28;20069;-37
2023/12/07 03:47:16;;;;;;;4.90;2.78;;;;;;;17.69;44.31;101939.44;5020587;28;20524;-37
2023/12/07 03:49:41;;;;;;;3.72;2.97;;;;;;;17.68;44.27;101955.03;5020483;28;20037;-37
2023/12/07 03:52:07;;;;;;;3.47;3.00;;;;;;;17.67;44.32;101947.91;5024107;28;20023;-37
2023/12/07 03:54:32;;;;;;;3.58;2.83;;;;;;;17.65;44.38;101948.16;5024023;28;20039;-37
2023/12/07 03:56:58;;;;;;;4.75;2.92;;;;;;;17.65;44.26;101936.34;5024554;28;20017;-37
2023/12/07 03:59:23;;;;;;;4.20;2.90;;;;;;;17.63;44.29;101947.59;5023978;28;20060;-37
2023/12/07 04:01:48;;;;;;;2.92;2.63;;;;;;;17.62;44.23;101948.66;5024778;28;20029;-36
2023/12/07 04:04:14;;;;;;;3.85;3.08;;;;;;;17.62;44.39;101943.16;5023113;28;20100;-38
2023/12/07 04:06:39;;;;;;;4.32;2.80;;;;;;;17.61;44.41;101952.47;5024220;28;20032;-38
2023/12/07 04:09:05;;;;;;;3.50;3.17;;;;;;;17.60;44.41;101945.31;5005495;28;20029;-38
2023/12/07 04:11:30;;;;;;;3.53;2.97;;;;;;;17.59;44.55;101943.66;5028364;28;20128;-38
2023/12/07 04:13:55;;;;;;;4.22;3.13;;;;;;;17.59;44.48;101934.63;5024210;28;20536;-38
2023/12/07 04:16:21;;;;;;;3.22;2.70;;;;;;;17.57;44.38;101940.34;5025227;28;20040;-38
2023/12/07 04:18:46;;;;;;;4.45;3.08;;;;;;;17.57;44.50;101934.88;5029420;28;20387;-38
2023/12/07 04:21:12;;;;;;;5.60;3.20;;;;;;;17.57;44.35;101947.72;5019273;28;20603;-38
2023/12/07 04:23:37;;;;;;;3.85;3.30;;;;;;;17.56;44.54;101935.09;5024329;28;20050;-37
2023/12/07 04:26:02;;;;;;;4.57;3.30;;;;;;;17.55;44.46;101934.28;5022383;28;20017;-36
2023/12/07 04:28:28;;;;;;;3.50;3.20;;;;;;;17.55;44.36;101933.47;5024279;28;20520;-36
2023/12/07 04:30:54;;;;;;;4.70;3.40;;;;;;;17.54;44.28;101931.78;5023418;28;20305;-37
2023/12/07 04:33:19;;;;;;;4.80;3.40;;;;;;;17.53;44.40;101932.84;5023442;28;20521;-37
2023/12/07 04:35:44;;;;;;;4.55;3.17;;;;;;;17.51;44.61;101930.38;5026914;28;20427;-36
2023/12/07 04:38:10;;;;;;;6.07;3.38;;;;;;;17.54;44.82;101927.13;5022962;28;20030;-36
2023/12/07 04:40:35;;;;;;;3.63;3.13;;;;;;;17.57;44.52;101925.78;5020266;28;20108;-37
2023/12/07 04:43:01;;;;;;;4.38;3.25;;;;;;;17.60;44.39;101926.13;5023336;28;20364;-37
2023/12/07 04:45:26;;;;;;;4.07;3.20;;;;;;;17.66;44.41;101924.31;5023327;28;20532;-37
2023/12/07 04:47:51;;;;;;;5.45;3.03;;;;;;;17.70;44.43;101930.13;5026594;28;20048;-37
2023/12/07 04:50:17;;;;;;;5.25;3.58;;;;;;;17.77;44.59;101934.38;5022586;28;20058;-36
2023/12/07 04:52:42;;;;;;;6.53;3.67;;;;;;;17.85;44.36;101940.53;5023291;28;20029;-38
2023/12/07 04:55:08;;;;;;;5.70;3.63;;;;;;;17.92;44.44;101941.19;5021857;28;20071;-37
2023/12/07 04:57:34;;;;;;;4.72;3.50;;;;;;;18.00;44.47;101942.72;5022663;28;20591;-39
2023/12/07 04:59:59;;;;;;;7.28;4.07;;;;;;;18.06;44.29;101941.72;5021560;28;20508;-37
2023/12/07 05:02:25;;;;;;;4.85;3.58;;;;;;;18.14;44.39;101938.53;5047237;28;20034;-37
2023/12/07 05:04:51;;;;;;;5.10;3.83;;;;;;;18.22;44.12;101945.50;5022847;28;20122;-37
2023/12/07 05:07:17;;;;;;;5.30;3.97;;;;;;;18.28;43.97;101944.50;5022579;28;20524;-37
2023/12/07 05:09:42;;;;;;;4.88;4.00;;;;;;;18.37;44.14;101943.00;5052798;28;20052;-39
2023/12/07 05:12:08;;;;;;;5.78;3.90;;;;;;;18.46;44.03;101946.13;5022889;28;20017;-37
2023/12/07 05:14:34;;;;;;;6.00;4.00;;;;;;;18.55;43.87;101947.38;5022157;28;20055;-37
2023/12/07 05:17:00;;;;;;;5.85;4.45;;;;;;;18.65;43.91;101935.69;5022918;28;20057;-38
2023/12/07 05:19:25;;;;;;;4.55;4.13;;;;;;;18.73;44.00;101932.47;5022208;28;20075;-37
2023/12/07 05:21:51;;;;;;;5.85;4.57;;;;;;;18.83;43.63;101934.53;5023498;28;20072;-38
2023/12/07 05:24:17;;;;;;;5.63;4.40;;;;;;;18.91;43.61;101928.63;5022583;28;20087;-37
2023/12/07 05:26:43;;;;;;;5.90;5.13;;;;;;;19.00;43.60;101926.25;5030078;28;20035;-38
2023/12/07 05:29:09;;;;;;;7.22;4.93;;;;;;;19.09;43.43;101926.63;5020412;28;20033;-39
2023/12/07 05:31:35;;;;;;;6.70;4.93;;;;;;;19.18;43.33;101921.50;5023607;28;20060;-39
2023/12/07 05:34:01;;;;;;;6.15;5.00;;;;;;;19.26;43.35;101917.47;5023441;28;20446;-39
2023/12/07 05:36:26;;;;;;;5.93;5.07;;;;;;;19.33;43.34;101918.09;5019984;28;20029;-39
2023/12/07 05:38:52;;;;;;;6.00;5.10;;;;;;;19.40;43.12;101925.03;5007076;28;20053;-39
2023/12/07 05:41:17;;;;;;;6.22;5.30;;;;;;;19.45;42.99;101913.25;5025413;28;20076;-37
2023/12/07 05:43:43;;;;;;;6.10;5.38;;;;;;;19.51;43.19;101917.69;5024890;28;20029;-37
2023/12/07 05:46:08;;;;;;;7.45;5.65;;;;;;;19.56;42.99;101914.19;5026545;28;20148;-37
2023/12/07 05:48:33;;;;;;;7.80;5.45;;;;;;;19.60;42.87;101911.72;5025648;28;20025;-37
2023/12/07 05:50:59;;;;;;;6.53;5.03;;;;;;;19.62;42.86;101909.53;5026560;28;20427;-37
2023/12/07 05:53:24;;;;;;;6.80;5.20;;;;;;;19.62;42.79;101912.28;5025884;28;20316;-37
2023/12/07 05:55:50;;;;;;;6.95;5.75;;;;;;;19.60;42.79;101901.56;5026218;28;20032;-37
2023/12/07 05:58:17;;;;;;;6.15;5.55;;;;;;;19.60;42.88;101901.56;5025884;28;20723;-37
2023/12/07 06:00:43;;;;;;;5.90;5.18;;;;;;;19.56;42.99;101905.94;5028388;28;20025;-37
2023/12/07 06:03:09;;;;;;;6.18;5.38;;;;;;;19.52;42.93;101905.63;5025589;28;20029;-37
2023/12/07 06:05:37;;;;;;;6.10;5.50;;;;;;;19.49;42.77;101916.31;5025565;28;20021;-39
2023/12/07 06:08:04;;;;;;;7.03;5.30;;;;;;;19.43;42.84;101911.84;5021661;28;20109;-39
2023/12/07 06:10:29;;;;;;;6.85;5.00;;;;;;;19.37;42.83;101911.81;5026053;28;20041;-39
2023/12/07 06:12:56;;;;;;;6.63;5.00;;;;;;;19.33;42.91;101909.84;5025232;28;20049;-39
2023/12/07 06:15:22;;;;;;;5.82;5.22;;;;;;;19.30;43.08;101916.69;5025799;28;20022;-39
2023/12/07 06:17:47;;;;;;;7.07;5.53;;;;;;;19.30;43.06;101921.34;5026157;28;20087;-38
2023/12/07 06:20:12;;;;;;;6.22;4.93;;;;;;;19.27;43.02;101919.94;5024051;28;20026;-39
2023/12/07 06:22:38;;;;;;;6.50;5.28;;;;;;;19.28;43.01;101916.09;5024777;28;20068;-39
2023/12/07 06:25:03;;;;;;;7.10;5.68;;;;;;;19.29;43.02;101916.94;5025585;28;20071;-39
2023/12/07 06:27:29;;;;;;;6.72;4.88;;;;;;;19.32;42.96;101921.91;5024909;28;20033;-39
2023/12/07 06:29:54;;;;;;;6.45;5.53;;;;;;;19.34;42.96;101922.50;5026394;28;20044;-37
2023/12/07 06:32:19;;;;;;;8.55;5.93;;;;;;;19.36;43.15;101915.66;5024816;28;20051;-38
2023/12/07 06:34:45;;;;;;;6.65;5.68;;;;;;;19.38;42.90;101912.63;5019501;28;20037;-38
2023/12/07 06:37:10;;;;;;;7.35;5.95;;;;;;;19.38;43.01;101905.19;5026071;28;20519;-38
2023/12/07 06:39:36;;;;;;;6.15;5.28;;;;;;;19.37;42.97;101909.06;5023042;28;20029;-38
2023/12/07 06:42:01;;;;;;;7.80;5.68;;;;;;;19.35;42.90;101913.13;5025249;28;20413;-38
2023/12/07 06:44:27;;;;;;;8.18;5.97;;;;;;;19.32;42.84;101906.25;5025657;28;20029;-38
2023/12/07 06:46:52;;;;;;;7.93;5.90;;;;;;;19.29;42.92;101909.53;5025919;28;20477;-38
2023/12/07 06:49:19;;;;;;;9.95;5.80;;;;;;;19.26;42.84;101910.03;5024831;28;20473;-39
2023/12/07 06:51:44;;;;;;;7.97;5.60;;;;;;;19.23;42.77;101905.06;5026019;28;20398;-39
2023/12/07 06:54:09;;;;;;;7.97;5.43;;;;;;;19.21;42.89;101918.22;5022062;28;20075;-39
2023/12/07 06:56:35;;;;;;;11.48;5.63;;;;;;;19.17;42.98;101917.91;5025899;28;20064;-39
2023/12/07 06:59:01;;;;;;;7.15;6.07;;;;;;;19.16;43.01;101912.69;5024439;28;20067;-38
2023/12/07 07:01:26;;;;;;;7.22;5.22;;;;;;;19.15;43.22;101919.25;5023678;28;20033;-37
2023/12/07 07:03:51;;;;;;;7.03;5.72;;;;;;;19.14;43.05;101912.09;5025139;28;20030;-37
2023/12/07 07:06:17;;;;;;;7.13;5.03;;;;;;;19.12;43.16;101917.06;5025107;28;20123;-37
2023/12/07 07:08:42;;;;;;;6.05;5.38;;;;;;;19.12;43.05;101904.13;5025307;28;20017;-38
2023/12/07 07:11:14;;;;;;;7.18;5.40;;;;;;;19.11;42.97;101910.72;5025111;28;20037;-39
2023/12/07 07:13:40;;;;;;;5.88;5.05;;;;;;;19.10;42.83;101911.78;5024587;28;20018;-38
2023/12/07 07:16:06;;;;;;;7.85;5.10;;;;;;;19.10;43.15;101910.97;5023080;28;20095;-39
2023/12/07 07:18:32;;;;;;;9.05;5.25;;;;;;;19.10;42.95;101910.97;5029718;28;20450;-39
2023/12/07 07:20:57;;;;;;;7.28;5.45;;;;;;;19.11;43.21;101913.47;5024897;28;20490;-39
2023/12/07 07:23:23;;;;;;;7.85;5.25;;;;;;;19.12;43.30;101914.31;5023882;28;20050;-37
2023/12/07 07:25:48;;;;;;;7.75;5.80;;;;;;;19.13;42.99;101915.94;5024297;28;20116;-37
2023/12/07 07:28:14;;;;;;;5.90;5.30;;;;;;;19.13;43.18;101914.03;5024969;28;20029;-39
2023/12/07 07:30:39;;;;;;;5.88;5.10;;;;;;;19.12;43.23;101909.63;5024852;28;20120;-37
2023/12/07 07:33:05;;;;;;;8.00;5.75;;;;;;;19.14;43.26;101918.44;5024969;28;20299;-37
2023/12/07 07:35:31;;;;;;;5.97;5.30;;;;;;;19.12;43.05;101917.88;5018040;28;20026;-37
2023/12/07 07:37:56;;;;;;;6.18;4.82;;;;;;;19.11;42.98;101909.91;5024788;28;20037;-37
2023/12/07 07:40:22;;;;;;;6.50;5.55;;;;;;;19.11;43.04;101901.66;5024713;28;20097;-39
2023/12/07 07:42:47;;;;;;;6.38;5.65;;;;;;;19.08;42.86;101908.50;5025625;28;20112;-39
2023/12/07 07:45:12;;;;;;;9.27;5.72;;;;;;;19.06;43.28;101914.22;5023578;28;20032;-37
2023/12/07 14:30:45;;;;;;;24.10;4.00;;;;;;;18.81;45.10;101411.31;5051990;28;20583;-38
2023/12/07 14:33:11;;;;;;;13.05;4.03;;;;;;;18.88;45.39;101414.66;5037047;28;20021;-36
2023/12/07 14:35:36;;;;;;;14.35;3.90;;;;;;;18.96;45.71;101405.94;5069066;28;20082;-35
2023/12/07 14:38:02;;;;;;;8.35;3.30;;;;;;;19.03;45.49;101405.66;5034058;28;20036;-35
2023/12/07 14:40:27;;;;;;;10.82;3.78;;;;;;;19.13;45.39;101407.63;5044416;28;20239;-35
2023/12/07 14:42:53;;;;;;;14.70;4.25;;;;;;;19.19;45.25;101412.88;5035909;28;20033;-35
2023/12/07 14:45:20;;;;;;;4.55;3.15;;;;;;;19.27;44.92;101400.50;5040761;28;20032;-35
2023/12/07 14:47:46;;;;;;;6.63;3.20;;;;;;;19.33;44.74;101402.16;5036341;28;20504;-35
2023/12/07 14:50:11;;;;;;;9.13;3.45;;;;;;;19.40;44.65;101399.16;5040406;28;20021;-37
2023/12/07 14:52:36;;;;;;;5.05;3.00;;;;;;;19.47;44.31;101396.16;5071474;28;20118;-37
2023/12/07 14:55:03;;;;;;;4.63;3.17;;;;;;;19.53;44.24;101393.13;5037939;28;20021;-35
2023/12/07 14:57:30;;;;;;;3.38;2.85;;;;;;;19.58;44.05;101397.78;5033632;28;20112;-35
2023/12/07 14:59:57;;;;;;;6.45;3.03;;;;;;;19.64;43.96;101399.44;5055545;28;20021;-36
2023/12/07 15:02:24;;;;;;;4.75;3.33;;;;;;;19.69;44.02;101393.13;5035347;28;20051;-34
2023/12/07 15:04:49;;;;;;;5.63;3.20;;;;;;;19.74;43.92;101384.88;5033866;28;20056;-38
2023/12/07 15:07:16;;;;;;;4.20;3.05;;;;;;;19.78;43.66;101383.25;5035776;28;20064;-35
2023/12/07 15:09:42;;;;;;;5.35;3.00;;;;;;;19.83;43.39;101374.16;5036613;28;20029;-36
2023/12/07 15:12:07;;;;;;;3.20;2.90;;;;;;;19.86;43.69;101366.22;5038777;28;20036;-37
2023/12/07 15:14:33;;;;;;;4.57;3.10;;;;;;;19.91;43.73;101361.78;5038771;28;20082;-35
2023/12/07 15:16:58;;;;;;;4.20;3.20;;;;;;;19.94;43.43;101352.97;5039575;28;20506;-36
2023/12/07 15:19:23;;;;;;;3.47;3.00;;;;;;;19.96;43.54;101348.88;5037863;28;20083;-36
2023/12/07 15:21:50;;;;;;;4.38;3.45;;;;;;;19.97;43.21;101336.75;5036976;28;20026;-36
2023/12/07 15:24:16;;;;;;;3.60;2.97;;;;;;;19.98;43.46;101329.31;5036745;28;20040;-36
2023/12/07 15:26:43;;;;;;;4.03;3.17;;;;;;;20.00;43.30;101322.44;5038579;28;20254;-37
2023/12/07 15:29:11;;;;;;;4.10;3.40;;;;;;;19.99;43.19;101315.28;5026289;28;20045;-35
2023/12/07 15:31:37;;;;;;;3.28;2.97;;;;;;;19.99;43.09;101311.72;5033580;28;20478;-36
2023/12/07 15:34:02;;;;;;;4.43;3.50;;;;;;;19.99;42.90;101308.97;5031645;28;20108;-37
2023/12/07 15:36:27;;;;;;;3.92;3.47;;;;;;;19.98;43.17;101304.56;5036867;28;20016;-36
2023/12/07 15:38:53;;;;;;;3.75;3.28;;;;;;;19.96;42.85;101310.34;5030012;28;20021;-35
2023/12/07 15:41:18;;;;;;;4.53;3.63;;;;;;;19.95;42.97;101299.59;5030392;28;20021;-35
2023/12/07 15:43:44;;;;;;;3.83;3.20;;;;;;;19.93;42.67;101297.16;5017415;28;20065;-35
2023/12/07 15:46:09;;;;;;;3.75;3.30;;;;;;;19.92;42.89;101291.94;5024397;28;20104;-35
2023/12/07 15:48:35;;;;;;;5.18;3.78;;;;;;;19.90;42.81;101289.44;5024533;28;20036;-35
